sensor_id;sensor_type;location;lat;lon;timestamp;pressure;altitude;pressure_sealevel;temperature;humidity
9139;BME280;4604;48.616;9.548;2024-01-30T00:01:51;98234.19;;;4.16;73.75
9139;BME280;4604;48.616;9.548;2024-01-30T00:04:18;98228.47;;;4.08;74.62
9139;BME280;4604;48.616;9.548;2024-01-30T00:06:45;98209.16;;;3.92;74.98
9139;BME280;4604;48.616;9.548;2024-01-30T00:09:12;98228.88;;;3.99;75.12
9139;BME280;4604;48.616;9.548;2024-01-30T00:11:39;98224.69;;;3.95;75.07
9139;BME280;4604;48.616;9.548;2024-01-30T00:14:06;98225.75;;;3.91;75.31
9139;BME280;4604;48.616;9.548;2024-01-30T00:16:33;98219.28;;;3.79;75.45
9139;BME280;4604;48.616;9.548;2024-01-30T00:18:59;98230.09;;;3.90;76.01
9139;BME280;4604;48.616;9.548;2024-01-30T00:21:27;98228.06;;;3.97;76.65
9139;BME280;4604;48.616;9.548;2024-01-30T00:23:55;98227.56;;;3.89;77.37
9139;BME280;4604;48.616;9.548;2024-01-30T00:26:22;98232.94;;;3.85;78.05
9139;BME280;4604;48.616;9.548;2024-01-30T00:28:48;98233.22;;;3.78;78.65
9139;BME280;4604;48.616;9.548;2024-01-30T00:31:15;98233.38;;;3.75;79.33
9139;BME280;4604;48.616;9.548;2024-01-30T00:33:42;98225.34;;;3.59;79.61
9139;BME280;4604;48.616;9.548;2024-01-30T00:36:09;98233.50;;;3.51;80.07
9139;BME280;4604;48.616;9.548;2024-01-30T00:38:37;98236.34;;;3.45;80.39
9139;BME280;4604;48.616;9.548;2024-01-30T00:41:05;98223.78;;;3.33;80.81
9139;BME280;4604;48.616;9.548;2024-01-30T00:43:31;98226.72;;;3.25;81.19
9139;BME280;4604;48.616;9.548;2024-01-30T00:45:58;98226.09;;;3.18;81.83
9139;BME280;4604;48.616;9.548;2024-01-30T00:48:25;98231.56;;;3.12;82.18
9139;BME280;4604;48.616;9.548;2024-01-30T00:50:51;98234.47;;;3.05;82.66
9139;BME280;4604;48.616;9.548;2024-01-30T00:53:20;98230.53;;;2.94;83.08
9139;BME280;4604;48.616;9.548;2024-01-30T00:55:47;98236.97;;;2.86;83.56
9139;BME280;4604;48.616;9.548;2024-01-30T00:58:15;98231.25;;;2.76;83.33
9139;BME280;4604;48.616;9.548;2024-01-30T01:00:41;98232.25;;;2.72;83.80
9139;BME280;4604;48.616;9.548;2024-01-30T01:03:08;98241.22;;;2.65;84.16
9139;BME280;4604;48.616;9.548;2024-01-30T01:05:34;98237.88;;;2.61;84.25
9139;BME280;4604;48.616;9.548;2024-01-30T01:08:01;98244.06;;;2.59;83.91
9139;BME280;4604;48.616;9.548;2024-01-30T01:10:27;98247.00;;;2.49;84.26
9139;BME280;4604;48.616;9.548;2024-01-30T01:12:54;98242.59;;;2.51;84.68
9139;BME280;4604;48.616;9.548;2024-01-30T01:15:22;98231.47;;;2.46;84.95
9139;BME280;4604;48.616;9.548;2024-01-30T01:17:48;98224.72;;;2.41;85.33
9139;BME280;4604;48.616;9.548;2024-01-30T01:20:15;98237.75;;;2.41;85.30
9139;BME280;4604;48.616;9.548;2024-01-30T01:22:42;98206.31;;;2.22;85.80
9139;BME280;4604;48.616;9.548;2024-01-30T01:25:09;98197.78;;;2.18;85.86
9139;BME280;4604;48.616;9.548;2024-01-30T01:27:36;98238.56;;;2.43;86.24
9139;BME280;4604;48.616;9.548;2024-01-30T01:30:08;98240.31;;;2.42;86.28
9139;BME280;4604;48.616;9.548;2024-01-30T01:32:36;98219.41;;;2.20;86.63
9139;BME280;4604;48.616;9.548;2024-01-30T01:35:04;98214.38;;;2.16;86.63
9139;BME280;4604;48.616;9.548;2024-01-30T01:37:30;98201.78;;;2.03;87.28
9139;BME280;4604;48.616;9.548;2024-01-30T01:39:57;98208.53;;;2.09;87.67
9139;BME280;4604;48.616;9.548;2024-01-30T01:42:24;98231.63;;;2.18;87.58
9139;BME280;4604;48.616;9.548;2024-01-30T01:44:50;98237.31;;;2.29;88.19
9139;BME280;4604;48.616;9.548;2024-01-30T01:47:17;98239.06;;;2.29;87.96
9139;BME280;4604;48.616;9.548;2024-01-30T01:49:45;98232.84;;;2.33;88.59
9139;BME280;4604;48.616;9.548;2024-01-30T01:52:11;98226.91;;;2.29;88.77
9139;BME280;4604;48.616;9.548;2024-01-30T01:54:37;98228.59;;;2.30;88.82
9139;BME280;4604;48.616;9.548;2024-01-30T01:57:04;98231.22;;;2.29;88.92
9139;BME280;4604;48.616;9.548;2024-01-30T01:59:32;98220.81;;;2.29;89.43
9139;BME280;4604;48.616;9.548;2024-01-30T02:01:58;98224.19;;;2.32;88.93
9139;BME280;4604;48.616;9.548;2024-01-30T02:04:26;98231.59;;;2.43;88.99
9139;BME280;4604;48.616;9.548;2024-01-30T02:06:54;98225.78;;;2.37;89.29
9139;BME280;4604;48.616;9.548;2024-01-30T02:09:21;98227.50;;;2.36;89.50
9139;BME280;4604;48.616;9.548;2024-01-30T02:11:48;98202.69;;;2.26;89.82
9139;BME280;4604;48.616;9.548;2024-01-30T02:14:15;98224.69;;;2.42;89.16
9139;BME280;4604;48.616;9.548;2024-01-30T02:16:41;98226.09;;;2.51;89.31
9139;BME280;4604;48.616;9.548;2024-01-30T02:19:08;98230.25;;;2.56;89.15
9139;BME280;4604;48.616;9.548;2024-01-30T02:21:36;98219.53;;;2.64;88.63
9139;BME280;4604;48.616;9.548;2024-01-30T02:24:03;98226.88;;;2.76;88.11
9139;BME280;4604;48.616;9.548;2024-01-30T02:26:32;98223.66;;;2.92;86.81
9139;BME280;4604;48.616;9.548;2024-01-30T02:28:59;98224.16;;;3.02;86.33
9139;BME280;4604;48.616;9.548;2024-01-30T02:31:26;98222.97;;;3.10;85.71
9139;BME280;4604;48.616;9.548;2024-01-30T02:33:52;98228.00;;;3.15;85.52
9139;BME280;4604;48.616;9.548;2024-01-30T02:36:19;98224.47;;;3.16;85.43
9139;BME280;4604;48.616;9.548;2024-01-30T02:38:47;98219.50;;;3.10;85.56
9139;BME280;4604;48.616;9.548;2024-01-30T02:41:13;98219.03;;;3.00;85.84
9139;BME280;4604;48.616;9.548;2024-01-30T02:43:40;98218.47;;;2.92;86.81
9139;BME280;4604;48.616;9.548;2024-01-30T02:46:07;98224.75;;;2.86;87.34
9139;BME280;4604;48.616;9.548;2024-01-30T02:48:33;98212.25;;;2.72;87.67
9139;BME280;4604;48.616;9.548;2024-01-30T02:51:00;98231.34;;;2.73;88.60
9139;BME280;4604;48.616;9.548;2024-01-30T02:53:26;98196.03;;;2.42;89.04
9139;BME280;4604;48.616;9.548;2024-01-30T02:55:54;98211.91;;;2.58;89.95
9139;BME280;4604;48.616;9.548;2024-01-30T02:58:21;98223.16;;;2.60;90.06
9139;BME280;4604;48.616;9.548;2024-01-30T03:00:47;98215.44;;;2.57;89.93
9139;BME280;4604;48.616;9.548;2024-01-30T03:03:14;98216.47;;;2.53;89.87
9139;BME280;4604;48.616;9.548;2024-01-30T03:05:40;98223.59;;;2.48;90.40
9139;BME280;4604;48.616;9.548;2024-01-30T03:08:07;98221.97;;;2.45;90.48
9139;BME280;4604;48.616;9.548;2024-01-30T03:10:33;98218.50;;;2.45;90.66
9139;BME280;4604;48.616;9.548;2024-01-30T03:13:01;98204.06;;;2.36;90.68
9139;BME280;4604;48.616;9.548;2024-01-30T03:15:28;98209.22;;;2.38;91.14
9139;BME280;4604;48.616;9.548;2024-01-30T03:17:54;98215.34;;;2.37;90.84
9139;BME280;4604;48.616;9.548;2024-01-30T03:20:21;98218.00;;;2.35;90.96
9139;BME280;4604;48.616;9.548;2024-01-30T03:22:48;98219.81;;;2.33;91.09
9139;BME280;4604;48.616;9.548;2024-01-30T03:25:14;98219.75;;;2.34;90.61
9139;BME280;4604;48.616;9.548;2024-01-30T03:27:41;98214.59;;;2.33;90.50
9139;BME280;4604;48.616;9.548;2024-01-30T03:30:09;98215.44;;;2.33;90.70
9139;BME280;4604;48.616;9.548;2024-01-30T03:32:36;98212.00;;;2.33;91.03
9139;BME280;4604;48.616;9.548;2024-01-30T03:35:03;98217.31;;;2.30;91.20
9139;BME280;4604;48.616;9.548;2024-01-30T03:37:29;98220.91;;;2.27;90.27
9139;BME280;4604;48.616;9.548;2024-01-30T03:39:56;98208.19;;;2.18;90.51
9139;BME280;4604;48.616;9.548;2024-01-30T03:42:23;98217.81;;;2.16;90.22
9139;BME280;4604;48.616;9.548;2024-01-30T03:44:49;98222.28;;;2.12;90.20
9139;BME280;4604;48.616;9.548;2024-01-30T03:47:18;98214.16;;;1.97;90.44
9139;BME280;4604;48.616;9.548;2024-01-30T03:49:45;98224.53;;;1.98;90.58
9139;BME280;4604;48.616;9.548;2024-01-30T03:52:12;98205.25;;;1.79;90.80
9139;BME280;4604;48.616;9.548;2024-01-30T03:54:39;98229.31;;;1.85;91.08
9139;BME280;4604;48.616;9.548;2024-01-30T03:57:08;98228.56;;;1.82;91.46
9139;BME280;4604;48.616;9.548;2024-01-30T03:59:35;98233.78;;;1.82;92.66
9139;BME280;4604;48.616;9.548;2024-01-30T04:02:01;98196.31;;;1.61;92.60
9139;BME280;4604;48.616;9.548;2024-01-30T04:04:29;98231.94;;;1.85;92.66
9139;BME280;4604;48.616;9.548;2024-01-30T04:06:56;98224.00;;;1.88;92.25
9139;BME280;4604;48.616;9.548;2024-01-30T04:09:22;98230.75;;;1.94;92.39
9139;BME280;4604;48.616;9.548;2024-01-30T04:11:49;98188.28;;;1.68;91.51
9139;BME280;4604;48.616;9.548;2024-01-30T04:14:16;98158.50;;;1.50;91.56
9139;BME280;4604;48.616;9.548;2024-01-30T04:16:42;98236.88;;;1.93;91.50
9139;BME280;4604;48.616;9.548;2024-01-30T04:19:09;98212.41;;;1.72;91.00
9139;BME280;4604;48.616;9.548;2024-01-30T04:21:37;98233.72;;;1.83;90.76
9139;BME280;4604;48.616;9.548;2024-01-30T04:24:04;98232.97;;;1.80;91.19
9139;BME280;4604;48.616;9.548;2024-01-30T04:26:31;98240.13;;;1.73;91.25
9139;BME280;4604;48.616;9.548;2024-01-30T04:28:57;98235.09;;;1.68;90.88
9139;BME280;4604;48.616;9.548;2024-01-30T04:31:24;98230.06;;;1.64;91.02
9139;BME280;4604;48.616;9.548;2024-01-30T04:33:50;98232.66;;;1.64;91.38
9139;BME280;4604;48.616;9.548;2024-01-30T04:36:17;98230.22;;;1.59;91.39
9139;BME280;4604;48.616;9.548;2024-01-30T04:38:45;98218.41;;;1.49;91.86
9139;BME280;4604;48.616;9.548;2024-01-30T04:41:11;98190.53;;;1.26;91.99
9139;BME280;4604;48.616;9.548;2024-01-30T04:43:38;98227.91;;;1.50;92.23
9139;BME280;4604;48.616;9.548;2024-01-30T04:46:05;98228.84;;;1.47;91.57
9139;BME280;4604;48.616;9.548;2024-01-30T04:48:32;98234.31;;;1.40;92.12
9139;BME280;4604;48.616;9.548;2024-01-30T04:50:58;98238.00;;;1.33;92.35
9139;BME280;4604;48.616;9.548;2024-01-30T04:53:30;98154.78;;;0.79;92.46
9139;BME280;4604;48.616;9.548;2024-01-30T04:55:59;98235.56;;;1.28;93.38
9139;BME280;4604;48.616;9.548;2024-01-30T04:58:25;98218.50;;;1.19;93.52
9139;BME280;4604;48.616;9.548;2024-01-30T05:00:52;98227.25;;;1.17;93.70
9139;BME280;4604;48.616;9.548;2024-01-30T05:03:19;98176.13;;;0.89;93.46
9139;BME280;4604;48.616;9.548;2024-01-30T05:05:47;98183.75;;;0.95;94.09
9139;BME280;4604;48.616;9.548;2024-01-30T05:08:14;98231.16;;;1.30;94.44
9139;BME280;4604;48.616;9.548;2024-01-30T05:10:41;98185.84;;;1.11;94.20
9139;BME280;4604;48.616;9.548;2024-01-30T05:13:09;98182.41;;;1.10;94.66
9139;BME280;4604;48.616;9.548;2024-01-30T05:15:39;98220.75;;;1.30;94.63
9139;BME280;4604;48.616;9.548;2024-01-30T05:18:05;98213.63;;;1.37;94.66
9139;BME280;4604;48.616;9.548;2024-01-30T05:20:32;98220.50;;;1.38;94.25
9139;BME280;4604;48.616;9.548;2024-01-30T05:22:59;98200.91;;;1.27;94.40
9139;BME280;4604;48.616;9.548;2024-01-30T05:25:25;98223.22;;;1.35;94.61
9139;BME280;4604;48.616;9.548;2024-01-30T05:27:52;98221.59;;;1.31;94.88
9139;BME280;4604;48.616;9.548;2024-01-30T05:30:22;98225.59;;;1.41;94.52
9139;BME280;4604;48.616;9.548;2024-01-30T05:32:48;98208.06;;;1.21;94.77
9139;BME280;4604;48.616;9.548;2024-01-30T05:35:15;98228.59;;;1.28;95.03
9139;BME280;4604;48.616;9.548;2024-01-30T05:37:42;98224.22;;;1.31;94.94
9139;BME280;4604;48.616;9.548;2024-01-30T05:40:09;98209.53;;;1.30;94.69
9139;BME280;4604;48.616;9.548;2024-01-30T05:42:36;98242.19;;;1.63;93.97
9139;BME280;4604;48.616;9.548;2024-01-30T05:45:03;98235.00;;;1.71;93.13
9139;BME280;4604;48.616;9.548;2024-01-30T05:47:31;98244.94;;;1.85;92.94
9139;BME280;4604;48.616;9.548;2024-01-30T05:49:58;98239.75;;;1.85;92.87
9139;BME280;4604;48.616;9.548;2024-01-30T05:52:25;98240.75;;;1.81;93.36
9139;BME280;4604;48.616;9.548;2024-01-30T05:54:51;98234.00;;;1.76;93.38
9139;BME280;4604;48.616;9.548;2024-01-30T05:57:18;98235.66;;;1.78;93.76
9139;BME280;4604;48.616;9.548;2024-01-30T05:59:44;98241.16;;;1.69;94.07
9139;BME280;4604;48.616;9.548;2024-01-30T06:02:12;98245.41;;;1.71;94.58
9139;BME280;4604;48.616;9.548;2024-01-30T06:04:40;98244.56;;;1.71;94.11
9139;BME280;4604;48.616;9.548;2024-01-30T06:07:07;98248.91;;;1.70;94.81
9139;BME280;4604;48.616;9.548;2024-01-30T06:09:33;98255.06;;;1.68;94.74
9139;BME280;4604;48.616;9.548;2024-01-30T06:12:00;98245.53;;;1.68;94.49
9139;BME280;4604;48.616;9.548;2024-01-30T06:14:27;98250.75;;;1.67;94.52
9139;BME280;4604;48.616;9.548;2024-01-30T06:16:53;98250.72;;;1.68;94.38
9139;BME280;4604;48.616;9.548;2024-01-30T06:19:20;98241.03;;;1.72;94.90
9139;BME280;4604;48.616;9.548;2024-01-30T06:21:48;98241.88;;;1.73;95.01
9139;BME280;4604;48.616;9.548;2024-01-30T06:24:14;98246.22;;;1.74;94.80
9139;BME280;4604;48.616;9.548;2024-01-30T06:26:41;98241.19;;;1.67;94.59
9139;BME280;4604;48.616;9.548;2024-01-30T06:29:07;98248.00;;;1.71;94.72
9139;BME280;4604;48.616;9.548;2024-01-30T06:31:39;98245.59;;;1.65;95.08
9139;BME280;4604;48.616;9.548;2024-01-30T06:34:06;98242.44;;;1.56;95.39
9139;BME280;4604;48.616;9.548;2024-01-30T06:36:32;98247.63;;;1.57;94.78
9139;BME280;4604;48.616;9.548;2024-01-30T06:39:01;98240.94;;;1.48;95.16
9139;BME280;4604;48.616;9.548;2024-01-30T06:41:27;98242.59;;;1.51;95.22
9139;BME280;4604;48.616;9.548;2024-01-30T06:43:54;98248.72;;;1.50;95.31
9139;BME280;4604;48.616;9.548;2024-01-30T06:46:20;98262.63;;;1.49;95.88
9139;BME280;4604;48.616;9.548;2024-01-30T06:48:47;98251.13;;;1.56;95.61
9139;BME280;4604;48.616;9.548;2024-01-30T06:51:13;98249.63;;;1.49;95.76
9139;BME280;4604;48.616;9.548;2024-01-30T06:53:40;98256.41;;;1.53;96.22
9139;BME280;4604;48.616;9.548;2024-01-30T06:56:08;98251.88;;;1.60;95.26
9139;BME280;4604;48.616;9.548;2024-01-30T06:58:34;98250.09;;;1.60;95.93
9139;BME280;4604;48.616;9.548;2024-01-30T07:01:01;98253.66;;;1.58;95.48
9139;BME280;4604;48.616;9.548;2024-01-30T07:03:27;98258.88;;;1.58;95.70
9139;BME280;4604;48.616;9.548;2024-01-30T07:05:54;98263.91;;;1.62;96.24
9139;BME280;4604;48.616;9.548;2024-01-30T07:08:21;98269.03;;;1.65;95.60
9139;BME280;4604;48.616;9.548;2024-01-30T07:10:47;98267.06;;;1.72;95.47
9139;BME280;4604;48.616;9.548;2024-01-30T07:13:15;98261.69;;;1.78;95.38
9139;BME280;4604;48.616;9.548;2024-01-30T07:15:42;98246.22;;;1.74;95.43
9139;BME280;4604;48.616;9.548;2024-01-30T07:18:09;98267.47;;;1.86;95.48
9139;BME280;4604;48.616;9.548;2024-01-30T07:20:36;98264.69;;;1.91;94.88
9139;BME280;4604;48.616;9.548;2024-01-30T07:23:03;98261.19;;;1.92;95.11
9139;BME280;4604;48.616;9.548;2024-01-30T07:25:30;98249.25;;;1.86;95.31
9139;BME280;4604;48.616;9.548;2024-01-30T07:27:56;98274.81;;;2.00;95.03
9139;BME280;4604;48.616;9.548;2024-01-30T07:30:24;98271.31;;;2.00;94.62
9139;BME280;4604;48.616;9.548;2024-01-30T07:32:51;98282.44;;;2.05;94.94
9139;BME280;4604;48.616;9.548;2024-01-30T07:35:17;98279.78;;;2.06;94.91
9139;BME280;4604;48.616;9.548;2024-01-30T07:37:44;98290.16;;;2.08;95.17
9139;BME280;4604;48.616;9.548;2024-01-30T07:40:11;98289.09;;;2.13;94.88
9139;BME280;4604;48.616;9.548;2024-01-30T07:42:37;98280.44;;;2.13;95.20
9139;BME280;4604;48.616;9.548;2024-01-30T07:45:05;98290.41;;;2.25;95.27
9139;BME280;4604;48.616;9.548;2024-01-30T07:47:33;98285.75;;;2.35;94.94
9139;BME280;4604;48.616;9.548;2024-01-30T07:49:59;98291.50;;;2.43;94.55
9139;BME280;4604;48.616;9.548;2024-01-30T07:52:26;98279.16;;;2.48;94.79
9139;BME280;4604;48.616;9.548;2024-01-30T07:54:52;98290.09;;;2.58;94.48
9139;BME280;4604;48.616;9.548;2024-01-30T07:57:20;98288.00;;;2.68;93.95
9139;BME280;4604;48.616;9.548;2024-01-30T07:59:47;98282.59;;;2.74;93.75
9139;BME280;4604;48.616;9.548;2024-01-30T08:02:13;98280.59;;;2.81;93.80
9139;BME280;4604;48.616;9.548;2024-01-30T08:04:43;98280.25;;;2.90;93.55
9139;BME280;4604;48.616;9.548;2024-01-30T08:07:13;98279.84;;;3.00;93.63
9139;BME280;4604;48.616;9.548;2024-01-30T08:09:40;98276.81;;;3.11;93.63
9139;BME280;4604;48.616;9.548;2024-01-30T08:12:07;98278.22;;;3.20;93.23
9139;BME280;4604;48.616;9.548;2024-01-30T08:14:33;98275.34;;;3.26;93.03
9139;BME280;4604;48.616;9.548;2024-01-30T08:17:00;98276.03;;;3.31;93.17
9139;BME280;4604;48.616;9.548;2024-01-30T08:19:26;98268.03;;;3.36;92.81
9139;BME280;4604;48.616;9.548;2024-01-30T08:21:54;98282.47;;;3.45;92.65
9139;BME280;4604;48.616;9.548;2024-01-30T08:24:21;98281.38;;;3.50;92.48
9139;BME280;4604;48.616;9.548;2024-01-30T08:26:47;98275.13;;;3.54;92.18
9139;BME280;4604;48.616;9.548;2024-01-30T08:29:14;98276.97;;;3.73;91.29
9139;BME280;4604;48.616;9.548;2024-01-30T08:31:40;98276.41;;;3.86;91.36
9139;BME280;4604;48.616;9.548;2024-01-30T08:34:07;98279.53;;;3.95;91.81
9139;BME280;4604;48.616;9.548;2024-01-30T08:36:33;98278.34;;;4.02;91.75
9139;BME280;4604;48.616;9.548;2024-01-30T08:39:01;98279.59;;;4.14;91.39
9139;BME280;4604;48.616;9.548;2024-01-30T08:41:30;98266.41;;;4.17;91.34
9139;BME280;4604;48.616;9.548;2024-01-30T08:44:03;98274.28;;;4.36;90.57
9139;BME280;4604;48.616;9.548;2024-01-30T08:46:33;98279.06;;;4.46;89.50
9139;BME280;4604;48.616;9.548;2024-01-30T08:49:00;98285.44;;;4.60;88.73
9139;BME280;4604;48.616;9.548;2024-01-30T08:51:26;98284.81;;;4.74;88.82
9139;BME280;4604;48.616;9.548;2024-01-30T08:53:53;98274.78;;;4.83;87.90
9139;BME280;4604;48.616;9.548;2024-01-30T08:56:21;98283.69;;;4.98;88.15
9139;BME280;4604;48.616;9.548;2024-01-30T08:58:47;98279.72;;;5.08;87.06
9139;BME280;4604;48.616;9.548;2024-01-30T09:01:14;98278.38;;;5.19;86.16
9139;BME280;4604;48.616;9.548;2024-01-30T09:03:41;98278.00;;;5.26;85.89
9139;BME280;4604;48.616;9.548;2024-01-30T09:06:11;98286.06;;;5.41;85.17
9139;BME280;4604;48.616;9.548;2024-01-30T09:08:37;98284.78;;;5.49;85.02
9139;BME280;4604;48.616;9.548;2024-01-30T09:11:08;98281.16;;;5.52;84.26
9139;BME280;4604;48.616;9.548;2024-01-30T09:13:36;98290.31;;;5.61;83.78
9139;BME280;4604;48.616;9.548;2024-01-30T09:16:03;98289.66;;;5.57;83.57
9139;BME280;4604;48.616;9.548;2024-01-30T09:18:30;98285.44;;;5.72;83.29
9139;BME280;4604;48.616;9.548;2024-01-30T09:20:57;98293.53;;;5.85;82.94
9139;BME280;4604;48.616;9.548;2024-01-30T09:23:23;98281.69;;;5.95;81.93
9139;BME280;4604;48.616;9.548;2024-01-30T09:25:50;98281.31;;;6.03;81.17
9139;BME280;4604;48.616;9.548;2024-01-30T09:28:17;98273.81;;;6.30;79.50
9139;BME280;4604;48.616;9.548;2024-01-30T09:30:45;98283.91;;;6.37;79.17
9139;BME280;4604;48.616;9.548;2024-01-30T09:33:12;98291.06;;;6.34;78.84
9139;BME280;4604;48.616;9.548;2024-01-30T09:35:38;98285.59;;;6.72;75.59
9139;BME280;4604;48.616;9.548;2024-01-30T09:38:05;98286.31;;;6.58;75.70
9139;BME280;4604;48.616;9.548;2024-01-30T09:40:32;98285.88;;;6.50;76.85
9139;BME280;4604;48.616;9.548;2024-01-30T09:42:58;98274.31;;;6.54;77.23
9139;BME280;4604;48.616;9.548;2024-01-30T09:45:26;98284.81;;;6.54;76.94
9139;BME280;4604;48.616;9.548;2024-01-30T09:47:54;98290.16;;;6.68;76.11
9139;BME280;4604;48.616;9.548;2024-01-30T09:50:20;98281.38;;;6.85;76.25
9139;BME280;4604;48.616;9.548;2024-01-30T09:52:47;98276.34;;;6.98;75.69
9139;BME280;4604;48.616;9.548;2024-01-30T09:55:15;98279.06;;;7.12;74.69
9139;BME280;4604;48.616;9.548;2024-01-30T09:57:42;98283.81;;;7.37;74.46
9139;BME280;4604;48.616;9.548;2024-01-30T10:00:10;98291.16;;;7.46;73.61
9139;BME280;4604;48.616;9.548;2024-01-30T10:02:37;98282.53;;;7.44;74.23
9139;BME280;4604;48.616;9.548;2024-01-30T10:05:05;98297.75;;;7.69;73.17
9139;BME280;4604;48.616;9.548;2024-01-30T10:07:32;98288.56;;;7.92;71.14
9139;BME280;4604;48.616;9.548;2024-01-30T10:09:59;98290.03;;;7.97;68.43
9139;BME280;4604;48.616;9.548;2024-01-30T10:12:26;98294.94;;;7.72;70.76
9139;BME280;4604;48.616;9.548;2024-01-30T10:14:55;98288.81;;;7.88;68.38
9139;BME280;4604;48.616;9.548;2024-01-30T10:17:24;98281.78;;;7.72;69.29
9139;BME280;4604;48.616;9.548;2024-01-30T10:19:51;98288.88;;;7.86;67.78
9139;BME280;4604;48.616;9.548;2024-01-30T10:22:19;98294.91;;;7.88;67.32
9139;BME280;4604;48.616;9.548;2024-01-30T10:24:46;98296.06;;;7.99;66.11
9139;BME280;4604;48.616;9.548;2024-01-30T10:27:14;98285.47;;;8.00;64.77
9139;BME280;4604;48.616;9.548;2024-01-30T10:29:41;98289.50;;;8.06;63.75
9139;BME280;4604;48.616;9.548;2024-01-30T10:32:07;98272.03;;;7.90;63.73
9139;BME280;4604;48.616;9.548;2024-01-30T10:34:34;98284.59;;;8.00;64.08
9139;BME280;4604;48.616;9.548;2024-01-30T10:37:07;98278.34;;;8.02;64.52
9139;BME280;4604;48.616;9.548;2024-01-30T10:39:39;98286.38;;;7.99;65.93
9139;BME280;4604;48.616;9.548;2024-01-30T10:42:11;98283.16;;;8.10;66.57
9139;BME280;4604;48.616;9.548;2024-01-30T10:44:44;98288.78;;;8.18;65.72
9139;BME280;4604;48.616;9.548;2024-01-30T10:47:18;98290.84;;;8.13;63.99
9139;BME280;4604;48.616;9.548;2024-01-30T10:49:47;98287.41;;;8.27;64.61
9139;BME280;4604;48.616;9.548;2024-01-30T10:52:14;98285.25;;;8.33;66.15
9139;BME280;4604;48.616;9.548;2024-01-30T10:54:44;98291.19;;;8.37;66.93
9139;BME280;4604;48.616;9.548;2024-01-30T10:57:11;98283.97;;;8.41;67.08
9139;BME280;4604;48.616;9.548;2024-01-30T10:59:39;98279.56;;;8.41;66.44
9139;BME280;4604;48.616;9.548;2024-01-30T11:02:07;98282.03;;;8.44;65.44
9139;BME280;4604;48.616;9.548;2024-01-30T11:04:36;98285.09;;;8.51;65.57
9139;BME280;4604;48.616;9.548;2024-01-30T11:07:14;98286.63;;;8.55;65.73
9139;BME280;4604;48.616;9.548;2024-01-30T11:09:41;98282.00;;;8.73;64.58
9139;BME280;4604;48.616;9.548;2024-01-30T11:12:13;98285.50;;;8.73;62.73
9139;BME280;4604;48.616;9.548;2024-01-30T11:14:39;98289.34;;;8.82;62.65
9139;BME280;4604;48.616;9.548;2024-01-30T11:17:06;98279.97;;;8.78;62.09
9139;BME280;4604;48.616;9.548;2024-01-30T11:19:33;98278.38;;;8.75;59.88
9139;BME280;4604;48.616;9.548;2024-01-30T11:21:59;98246.03;;;8.59;59.93
9139;BME280;4604;48.616;9.548;2024-01-30T11:24:26;98277.91;;;8.83;58.95
9139;BME280;4604;48.616;9.548;2024-01-30T11:26:56;98271.47;;;8.87;59.12
9139;BME280;4604;48.616;9.548;2024-01-30T11:29:26;98272.72;;;8.96;58.92
9139;BME280;4604;48.616;9.548;2024-01-30T11:31:53;98266.22;;;9.02;58.87
9139;BME280;4604;48.616;9.548;2024-01-30T11:34:20;98264.78;;;9.10;59.57
9139;BME280;4604;48.616;9.548;2024-01-30T11:36:51;98256.41;;;9.18;58.88
9139;BME280;4604;48.616;9.548;2024-01-30T11:39:20;98261.09;;;9.27;58.94
9139;BME280;4604;48.616;9.548;2024-01-30T11:41:50;98258.03;;;9.33;59.17
9139;BME280;4604;48.616;9.548;2024-01-30T11:44:17;98260.09;;;9.42;58.26
9139;BME280;4604;48.616;9.548;2024-01-30T11:46:47;98252.66;;;9.49;58.02
9139;BME280;4604;48.616;9.548;2024-01-30T11:49:14;98248.66;;;9.56;57.88
9139;BME280;4604;48.616;9.548;2024-01-30T11:51:41;98255.84;;;9.67;58.47
9139;BME280;4604;48.616;9.548;2024-01-30T11:54:07;98252.94;;;9.72;57.32
9139;BME280;4604;48.616;9.548;2024-01-30T11:56:34;98249.78;;;9.79;56.71
9139;BME280;4604;48.616;9.548;2024-01-30T11:59:02;98248.53;;;9.85;56.42
9139;BME280;4604;48.616;9.548;2024-01-30T12:01:29;98247.28;;;9.91;55.62
9139;BME280;4604;48.616;9.548;2024-01-30T12:03:58;98251.59;;;9.92;54.67
9139;BME280;4604;48.616;9.548;2024-01-30T12:06:25;98245.28;;;9.94;54.35
9139;BME280;4604;48.616;9.548;2024-01-30T12:09:00;98242.47;;;9.97;54.51
9139;BME280;4604;48.616;9.548;2024-01-30T12:11:29;98246.03;;;9.96;54.70
9139;BME280;4604;48.616;9.548;2024-01-30T12:13:56;98241.41;;;10.00;54.85
9139;BME280;4604;48.616;9.548;2024-01-30T12:16:23;98240.13;;;10.05;54.54
9139;BME280;4604;48.616;9.548;2024-01-30T12:19:00;98240.75;;;10.09;55.03
9139;BME280;4604;48.616;9.548;2024-01-30T12:21:27;98244.06;;;10.13;55.17
9139;BME280;4604;48.616;9.548;2024-01-30T12:23:56;98234.97;;;10.17;55.62
9139;BME280;4604;48.616;9.548;2024-01-30T12:26:23;98231.28;;;10.19;55.56
9139;BME280;4604;48.616;9.548;2024-01-30T12:28:50;98224.00;;;10.23;56.00
9139;BME280;4604;48.616;9.548;2024-01-30T12:31:17;98230.50;;;10.32;55.76
9139;BME280;4604;48.616;9.548;2024-01-30T12:33:43;98216.94;;;10.36;55.08
9139;BME280;4604;48.616;9.548;2024-01-30T12:36:12;98221.59;;;10.45;53.18
9139;BME280;4604;48.616;9.548;2024-01-30T12:38:39;98219.69;;;10.47;52.55
9139;BME280;4604;48.616;9.548;2024-01-30T12:41:07;98208.00;;;10.52;52.09
9139;BME280;4604;48.616;9.548;2024-01-30T12:43:35;98209.88;;;10.62;51.14
9139;BME280;4604;48.616;9.548;2024-01-30T12:46:02;98210.94;;;10.60;52.13
9139;BME280;4604;48.616;9.548;2024-01-30T12:48:29;98207.75;;;10.67;52.00
9139;BME280;4604;48.616;9.548;2024-01-30T12:50:56;98209.00;;;10.75;52.16
9139;BME280;4604;48.616;9.548;2024-01-30T12:53:24;98205.09;;;10.80;50.99
9139;BME280;4604;48.616;9.548;2024-01-30T12:55:50;98207.38;;;10.85;51.09
9139;BME280;4604;48.616;9.548;2024-01-30T12:58:17;98195.00;;;10.98;50.13
9139;BME280;4604;48.616;9.548;2024-01-30T13:00:44;98207.50;;;11.20;48.84
9139;BME280;4604;48.616;9.548;2024-01-30T13:03:10;98203.22;;;11.30;48.86
9139;BME280;4604;48.616;9.548;2024-01-30T13:05:37;98206.78;;;11.42;47.75
9139;BME280;4604;48.616;9.548;2024-01-30T13:08:04;98200.03;;;11.38;47.54
9139;BME280;4604;48.616;9.548;2024-01-30T13:10:32;98198.00;;;11.42;47.05
9139;BME280;4604;48.616;9.548;2024-01-30T13:12:59;98214.81;;;11.41;46.33
9139;BME280;4604;48.616;9.548;2024-01-30T13:15:26;98208.53;;;11.30;47.24
9139;BME280;4604;48.616;9.548;2024-01-30T13:17:52;98213.63;;;11.45;47.10
9139;BME280;4604;48.616;9.548;2024-01-30T13:20:19;98207.69;;;11.54;47.06
9139;BME280;4604;48.616;9.548;2024-01-30T13:22:47;98194.16;;;11.46;47.39
9139;BME280;4604;48.616;9.548;2024-01-30T13:25:15;98215.31;;;11.46;47.80
9139;BME280;4604;48.616;9.548;2024-01-30T13:27:43;98208.03;;;11.49;47.72
9139;BME280;4604;48.616;9.548;2024-01-30T13:30:10;98214.81;;;11.65;46.96
9139;BME280;4604;48.616;9.548;2024-01-30T13:32:36;98222.16;;;11.72;47.07